sensor_id;sensor_type;location;lat;lon;timestamp;temperature;humidity
66422;DHT22;53228;51.380;0.098;2024-02-28T00:01:55;3.20;99.90
66422;DHT22;53228;51.380;0.098;2024-02-28T00:06:51;3.20;99.90
66422;DHT22;53228;51.380;0.098;2024-02-28T00:11:47;3.30;99.90
66422;DHT22;53228;51.380;0.098;2024-02-28T00:14:14;3.20;99.90
66422;DHT22;53228;51.380;0.098;2024-02-28T00:16:43;3.10;99.90
66422;DHT22;53228;51.380;0.098;2024-02-28T00:19:12;3.00;99.90
66422;DHT22;53228;51.380;0.098;2024-02-28T00:21:40;3.00;99.90
66422;DHT22;53228;51.380;0.098;2024-02-28T00:26:41;3.30;99.90
66422;DHT22;53228;51.380;0.098;2024-02-28T00:29:09;2.80;99.90
66422;DHT22;53228;51.380;0.098;2024-02-28T00:31:37;2.70;99.90
66422;DHT22;53228;51.380;0.098;2024-02-28T00:34:05;2.70;99.90
66422;DHT22;53228;51.380;0.098;2024-02-28T00:36:34;2.70;99.90
66422;DHT22;53228;51.380;0.098;2024-02-28T00:39:18;2.80;99.90
66422;DHT22;53228;51.380;0.098;2024-02-28T00:41:46;2.60;99.90
66422;DHT22;53228;51.380;0.098;2024-02-28T00:44:13;2.60;99.90
66422;DHT22;53228;51.380;0.098;2024-02-28T00:46:41;2.70;99.90
66422;DHT22;53228;51.380;0.098;2024-02-28T00:49:09;2.60;99.90
66422;DHT22;53228;51.380;0.098;2024-02-28T00:51:36;2.50;99.90
66422;DHT22;53228;51.380;0.098;2024-02-28T00:54:05;2.30;99.90
66422;DHT22;53228;51.380;0.098;2024-02-28T00:56:32;2.40;99.90
66422;DHT22;53228;51.380;0.098;2024-02-28T00:59:00;2.50;99.90
66422;DHT22;53228;51.380;0.098;2024-02-28T01:01:30;2.50;99.90
66422;DHT22;53228;51.380;0.098;2024-02-28T01:03:58;2.50;99.90
66422;DHT22;53228;51.380;0.098;2024-02-28T01:06:25;2.80;99.90
66422;DHT22;53228;51.380;0.098;2024-02-28T01:08:53;2.50;99.90
66422;DHT22;53228;51.380;0.098;2024-02-28T01:13:49;2.60;99.90
66422;DHT22;53228;51.380;0.098;2024-02-28T01:16:16;2.60;99.90
66422;DHT22;53228;51.380;0.098;2024-02-28T01:21:12;2.60;99.90
66422;DHT22;53228;51.380;0.098;2024-02-28T01:23:40;2.40;99.90
66422;DHT22;53228;51.380;0.098;2024-02-28T01:26:08;2.80;99.90
66422;DHT22;53228;51.380;0.098;2024-02-28T01:28:35;2.60;99.90
66422;DHT22;53228;51.380;0.098;2024-02-28T01:31:03;2.50;99.90
66422;DHT22;53228;51.380;0.098;2024-02-28T01:33:31;2.60;99.90
66422;DHT22;53228;51.380;0.098;2024-02-28T01:35:59;2.50;99.90
66422;DHT22;53228;51.380;0.098;2024-02-28T01:38:27;2.40;99.90
66422;DHT22;53228;51.380;0.098;2024-02-28T01:40:55;2.10;99.90
66422;DHT22;53228;51.380;0.098;2024-02-28T01:43:22;2.40;99.90
66422;DHT22;53228;51.380;0.098;2024-02-28T01:45:50;2.40;99.90
66422;DHT22;53228;51.380;0.098;2024-02-28T01:48:18;2.40;99.90
66422;DHT22;53228;51.380;0.098;2024-02-28T01:53:15;2.20;99.90
66422;DHT22;53228;51.380;0.098;2024-02-28T01:55:46;2.40;99.90
66422;DHT22;53228;51.380;0.098;2024-02-28T01:58:14;2.30;99.90
66422;DHT22;53228;51.380;0.098;2024-02-28T02:00:42;2.30;99.90
66422;DHT22;53228;51.380;0.098;2024-02-28T02:03:10;2.40;99.90
66422;DHT22;53228;51.380;0.098;2024-02-28T02:05:38;2.20;99.90
66422;DHT22;53228;51.380;0.098;2024-02-28T02:08:06;2.10;99.90
66422;DHT22;53228;51.380;0.098;2024-02-28T02:10:34;2.60;99.90
66422;DHT22;53228;51.380;0.098;2024-02-28T02:13:07;2.30;99.90
66422;DHT22;53228;51.380;0.098;2024-02-28T02:15:35;2.20;99.90
66422;DHT22;53228;51.380;0.098;2024-02-28T02:20:32;2.10;99.90
66422;DHT22;53228;51.380;0.098;2024-02-28T02:23:03;2.30;99.90
66422;DHT22;53228;51.380;0.098;2024-02-28T02:27:59;2.30;99.90
66422;DHT22;53228;51.380;0.098;2024-02-28T02:30:27;2.10;99.90
66422;DHT22;53228;51.380;0.098;2024-02-28T02:32:54;1.70;99.90
66422;DHT22;53228;51.380;0.098;2024-02-28T02:35:22;2.00;99.90
66422;DHT22;53228;51.380;0.098;2024-02-28T02:37:50;2.20;99.90
66422;DHT22;53228;51.380;0.098;2024-02-28T02:40:18;2.10;99.90
66422;DHT22;53228;51.380;0.098;2024-02-28T02:42:45;1.70;99.90
66422;DHT22;53228;51.380;0.098;2024-02-28T02:47:41;2.00;99.90
66422;DHT22;53228;51.380;0.098;2024-02-28T02:52:39;2.10;99.90
66422;DHT22;53228;51.380;0.098;2024-02-28T02:55:07;2.20;99.90
66422;DHT22;53228;51.380;0.098;2024-02-28T02:57:35;2.10;99.90
66422;DHT22;53228;51.380;0.098;2024-02-28T03:00:03;1.90;99.90
66422;DHT22;53228;51.380;0.098;2024-02-28T03:02:31;2.00;99.90
66422;DHT22;53228;51.380;0.098;2024-02-28T03:04:59;2.00;99.90
66422;DHT22;53228;51.380;0.098;2024-02-28T03:07:27;1.80;99.90
66422;DHT22;53228;51.380;0.098;2024-02-28T03:09:54;2.00;99.90
66422;DHT22;53228;51.380;0.098;2024-02-28T03:12:22;1.80;99.90
66422;DHT22;53228;51.380;0.098;2024-02-28T03:14:50;2.00;99.90
66422;DHT22;53228;51.380;0.098;2024-02-28T03:17:18;2.10;99.90
66422;DHT22;53228;51.380;0.098;2024-02-28T03:19:45;1.80;99.90
66422;DHT22;53228;51.380;0.098;2024-02-28T03:24:41;2.00;99.90
66422;DHT22;53228;51.380;0.098;2024-02-28T03:27:09;1.90;99.90
66422;DHT22;53228;51.380;0.098;2024-02-28T03:29:37;2.10;99.90
66422;DHT22;53228;51.380;0.098;2024-02-28T03:32:05;2.30;99.90
66422;DHT22;53228;51.380;0.098;2024-02-28T03:34:32;2.00;99.90
66422;DHT22;53228;51.380;0.098;2024-02-28T03:37:00;1.90;99.90
66422;DHT22;53228;51.380;0.098;2024-02-28T03:39:28;1.90;99.90
66422;DHT22;53228;51.380;0.098;2024-02-28T03:44:24;2.30;99.90
66422;DHT22;53228;51.380;0.098;2024-02-28T03:46:53;2.20;99.90
66422;DHT22;53228;51.380;0.098;2024-02-28T03:51:49;2.20;99.90
66422;DHT22;53228;51.380;0.098;2024-02-28T03:54:16;2.30;99.90
66422;DHT22;53228;51.380;0.098;2024-02-28T03:56:44;2.50;99.90
66422;DHT22;53228;51.380;0.098;2024-02-28T03:59:12;2.20;99.90
66422;DHT22;53228;51.380;0.098;2024-02-28T04:01:39;2.40;99.90
66422;DHT22;53228;51.380;0.098;2024-02-28T04:04:07;2.20;99.90
66422;DHT22;53228;51.380;0.098;2024-02-28T04:06:35;2.20;99.90
66422;DHT22;53228;51.380;0.098;2024-02-28T04:09:03;2.10;99.90
66422;DHT22;53228;51.380;0.098;2024-02-28T04:11:31;2.30;99.90
66422;DHT22;53228;51.380;0.098;2024-02-28T04:13:59;2.30;99.90
66422;DHT22;53228;51.380;0.098;2024-02-28T04:16:26;2.20;99.90
66422;DHT22;53228;51.380;0.098;2024-02-28T04:18:54;2.40;99.90
66422;DHT22;53228;51.380;0.098;2024-02-28T04:21:22;2.10;99.90
66422;DHT22;53228;51.380;0.098;2024-02-28T04:23:50;2.10;99.90
66422;DHT22;53228;51.380;0.098;2024-02-28T04:26:17;2.20;99.90
66422;DHT22;53228;51.380;0.098;2024-02-28T04:28:45;2.50;99.90
66422;DHT22;53228;51.380;0.098;2024-02-28T04:33:41;2.00;99.90
66422;DHT22;53228;51.380;0.098;2024-02-28T04:36:08;2.50;99.90
66422;DHT22;53228;51.380;0.098;2024-02-28T04:41:04;2.40;99.90
66422;DHT22;53228;51.380;0.098;2024-02-28T04:43:32;2.40;99.90
66422;DHT22;53228;51.380;0.098;2024-02-28T04:46:00;2.40;99.90
66422;DHT22;53228;51.380;0.098;2024-02-28T04:48:28;2.70;99.90
66422;DHT22;53228;51.380;0.098;2024-02-28T04:50:55;2.30;99.90
66422;DHT22;53228;51.380;0.098;2024-02-28T04:55:51;2.40;99.90
66422;DHT22;53228;51.380;0.098;2024-02-28T04:58:19;2.60;99.90
66422;DHT22;53228;51.380;0.098;2024-02-28T05:08:10;2.60;99.90
66422;DHT22;53228;51.380;0.098;2024-02-28T05:10:38;2.50;99.90
66422;DHT22;53228;51.380;0.098;2024-02-28T05:13:06;2.50;99.90
66422;DHT22;53228;51.380;0.098;2024-02-28T05:15:34;2.50;99.90
66422;DHT22;53228;51.380;0.098;2024-02-28T05:18:02;2.20;99.90
66422;DHT22;53228;51.380;0.098;2024-02-28T05:20:30;2.20;99.90
66422;DHT22;53228;51.380;0.098;2024-02-28T05:22:57;2.50;99.90
66422;DHT22;53228;51.380;0.098;2024-02-28T05:25:25;2.40;99.90
66422;DHT22;53228;51.380;0.098;2024-02-28T05:27:53;2.50;99.90
66422;DHT22;53228;51.380;0.098;2024-02-28T05:30:20;2.60;99.90
66422;DHT22;53228;51.380;0.098;2024-02-28T05:32:48;2.90;99.90
66422;DHT22;53228;51.380;0.098;2024-02-28T05:35:16;2.70;99.90
66422;DHT22;53228;51.380;0.098;2024-02-28T05:37:44;2.80;99.90
66422;DHT22;53228;51.380;0.098;2024-02-28T05:40:14;2.60;99.90
66422;DHT22;53228;51.380;0.098;2024-02-28T05:42:41;2.60;99.90
66422;DHT22;53228;51.380;0.098;2024-02-28T05:45:10;2.50;99.90
66422;DHT22;53228;51.380;0.098;2024-02-28T05:47:38;2.40;99.90
66422;DHT22;53228;51.380;0.098;2024-02-28T05:50:06;2.60;99.90
66422;DHT22;53228;51.380;0.098;2024-02-28T05:52:33;2.80;99.90
66422;DHT22;53228;51.380;0.098;2024-02-28T05:55:01;2.70;99.90
66422;DHT22;53228;51.380;0.098;2024-02-28T05:57:29;2.70;99.90
66422;DHT22;53228;51.380;0.098;2024-02-28T05:59:57;2.80;99.90
66422;DHT22;53228;51.380;0.098;2024-02-28T06:02:24;2.70;99.90
66422;DHT22;53228;51.380;0.098;2024-02-28T06:04:52;3.00;99.90
66422;DHT22;53228;51.380;0.098;2024-02-28T06:07:20;2.70;99.90
66422;DHT22;53228;51.380;0.098;2024-02-28T06:09:48;2.80;99.90
66422;DHT22;53228;51.380;0.098;2024-02-28T06:14:43;2.80;99.90
66422;DHT22;53228;51.380;0.098;2024-02-28T06:17:11;2.80;99.90
66422;DHT22;53228;51.380;0.098;2024-02-28T06:19:39;2.80;99.90
66422;DHT22;53228;51.380;0.098;2024-02-28T06:22:06;2.90;99.90
66422;DHT22;53228;51.380;0.098;2024-02-28T06:24:35;2.70;99.90
66422;DHT22;53228;51.380;0.098;2024-02-28T06:27:02;2.80;99.90
66422;DHT22;53228;51.380;0.098;2024-02-28T06:29:35;2.90;99.90
66422;DHT22;53228;51.380;0.098;2024-02-28T06:32:04;2.90;99.90
66422;DHT22;53228;51.380;0.098;2024-02-28T06:34:31;3.00;99.90
66422;DHT22;53228;51.380;0.098;2024-02-28T06:36:59;2.80;99.90
66422;DHT22;53228;51.380;0.098;2024-02-28T06:39:27;2.80;99.90
66422;DHT22;53228;51.380;0.098;2024-02-28T06:41:54;2.80;99.90
66422;DHT22;53228;51.380;0.098;2024-02-28T06:44:22;3.10;99.90
66422;DHT22;53228;51.380;0.098;2024-02-28T06:46:50;3.10;99.90
66422;DHT22;53228;51.380;0.098;2024-02-28T06:49:17;3.10;99.90
66422;DHT22;53228;51.380;0.098;2024-02-28T06:51:45;2.90;99.90
66422;DHT22;53228;51.380;0.098;2024-02-28T06:54:13;3.10;99.90
66422;DHT22;53228;51.380;0.098;2024-02-28T06:56:41;3.10;99.90
66422;DHT22;53228;51.380;0.098;2024-02-28T06:59:08;3.10;99.90
66422;DHT22;53228;51.380;0.098;2024-02-28T07:01:36;3.00;99.90
66422;DHT22;53228;51.380;0.098;2024-02-28T07:09:00;3.10;99.90
66422;DHT22;53228;51.380;0.098;2024-02-28T07:11:28;3.00;99.90
66422;DHT22;53228;51.380;0.098;2024-02-28T07:13:56;3.10;99.90
66422;DHT22;53228;51.380;0.098;2024-02-28T07:16:25;3.30;99.90
66422;DHT22;53228;51.380;0.098;2024-02-28T07:18:53;3.30;99.90
66422;DHT22;53228;51.380;0.098;2024-02-28T07:21:21;3.10;99.90
66422;DHT22;53228;51.380;0.098;2024-02-28T07:23:49;3.50;99.90
66422;DHT22;53228;51.380;0.098;2024-02-28T07:26:17;3.50;99.90
66422;DHT22;53228;51.380;0.098;2024-02-28T07:28:53;3.50;99.90
66422;DHT22;53228;51.380;0.098;2024-02-28T07:31:21;3.40;99.90
66422;DHT22;53228;51.380;0.098;2024-02-28T07:33:49;3.60;99.90
66422;DHT22;53228;51.380;0.098;2024-02-28T07:36:17;3.60;99.90
66422;DHT22;53228;51.380;0.098;2024-02-28T07:38:45;3.10;99.90
66422;DHT22;53228;51.380;0.098;2024-02-28T07:41:12;3.70;99.90
66422;DHT22;53228;51.380;0.098;2024-02-28T07:43:43;3.30;99.90
66422;DHT22;53228;51.380;0.098;2024-02-28T07:46:11;3.50;99.90
66422;DHT22;53228;51.380;0.098;2024-02-28T07:48:39;3.40;99.90
66422;DHT22;53228;51.380;0.098;2024-02-28T07:51:07;3.50;99.90
66422;DHT22;53228;51.380;0.098;2024-02-28T07:53:35;3.70;99.90
66422;DHT22;53228;51.380;0.098;2024-02-28T07:56:03;3.70;99.90
66422;DHT22;53228;51.380;0.098;2024-02-28T08:00:59;3.50;99.90
66422;DHT22;53228;51.380;0.098;2024-02-28T08:03:26;3.90;99.90
66422;DHT22;53228;51.380;0.098;2024-02-28T08:05:54;3.70;99.90
66422;DHT22;53228;51.380;0.098;2024-02-28T08:08:22;3.90;99.90
66422;DHT22;53228;51.380;0.098;2024-02-28T08:10:49;4.00;99.90
66422;DHT22;53228;51.380;0.098;2024-02-28T08:13:19;4.10;99.90
66422;DHT22;53228;51.380;0.098;2024-02-28T08:15:47;3.90;99.90
66422;DHT22;53228;51.380;0.098;2024-02-28T08:18:14;3.80;99.90
66422;DHT22;53228;51.380;0.098;2024-02-28T08:20:42;4.20;99.90
66422;DHT22;53228;51.380;0.098;2024-02-28T08:25:38;4.00;99.90
66422;DHT22;53228;51.380;0.098;2024-02-28T08:28:06;4.10;99.90
66422;DHT22;53228;51.380;0.098;2024-02-28T08:30:33;4.30;99.90
66422;DHT22;53228;51.380;0.098;2024-02-28T08:33:01;4.30;99.90
66422;DHT22;53228;51.380;0.098;2024-02-28T08:35:29;4.40;99.90
66422;DHT22;53228;51.380;0.098;2024-02-28T08:37:57;4.50;99.90
66422;DHT22;53228;51.380;0.098;2024-02-28T08:42:52;4.60;99.90
66422;DHT22;53228;51.380;0.098;2024-02-28T08:45:22;4.70;99.90
66422;DHT22;53228;51.380;0.098;2024-02-28T08:47:50;4.90;99.90
66422;DHT22;53228;51.380;0.098;2024-02-28T09:00:14;5.20;99.90
66422;DHT22;53228;51.380;0.098;2024-02-28T09:02:43;5.10;99.90
66422;DHT22;53228;51.380;0.098;2024-02-28T09:07:39;5.50;99.90
66422;DHT22;53228;51.380;0.098;2024-02-28T09:10:07;5.40;99.90
66422;DHT22;53228;51.380;0.098;2024-02-28T09:15:04;5.60;99.90
66422;DHT22;53228;51.380;0.098;2024-02-28T09:22:28;5.70;99.90
66422;DHT22;53228;51.380;0.098;2024-02-28T09:24:56;5.90;99.90
66422;DHT22;53228;51.380;0.098;2024-02-28T09:27:24;5.90;99.90
66422;DHT22;53228;51.380;0.098;2024-02-28T09:32:21;5.80;99.90
66422;DHT22;53228;51.380;0.098;2024-02-28T09:34:49;5.80;99.90
66422;DHT22;53228;51.380;0.098;2024-02-28T09:37:16;5.80;99.90
66422;DHT22;53228;51.380;0.098;2024-02-28T09:39:44;5.80;99.90
66422;DHT22;53228;51.380;0.098;2024-02-28T09:42:12;6.00;99.90
66422;DHT22;53228;51.380;0.098;2024-02-28T09:44:43;5.90;99.90
66422;DHT22;53228;51.380;0.098;2024-02-28T09:49:39;6.00;99.90
66422;DHT22;53228;51.380;0.098;2024-02-28T09:52:11;6.00;99.90
66422;DHT22;53228;51.380;0.098;2024-02-28T09:54:40;6.10;99.90
66422;DHT22;53228;51.380;0.098;2024-02-28T09:57:11;6.10;99.90
66422;DHT22;53228;51.380;0.098;2024-02-28T09:59:40;6.00;99.90
66422;DHT22;53228;51.380;0.098;2024-02-28T10:02:21;6.00;99.90
66422;DHT22;53228;51.380;0.098;2024-02-28T10:04:51;6.10;99.90
66422;DHT22;53228;51.380;0.098;2024-02-28T10:07:19;6.30;99.90
66422;DHT22;53228;51.380;0.098;2024-02-28T10:09:47;6.20;99.90
66422;DHT22;53228;51.380;0.098;2024-02-28T10:12:15;6.20;99.90
66422;DHT22;53228;51.380;0.098;2024-02-28T10:14:43;6.20;99.90
66422;DHT22;53228;51.380;0.098;2024-02-28T10:19:38;6.40;99.90
66422;DHT22;53228;51.380;0.098;2024-02-28T10:24:34;6.30;99.90
66422;DHT22;53228;51.380;0.098;2024-02-28T10:27:02;7.30;99.90
66422;DHT22;53228;51.380;0.098;2024-02-28T10:29:30;6.70;99.90
66422;DHT22;53228;51.380;0.098;2024-02-28T10:32:01;6.60;99.90
66422;DHT22;53228;51.380;0.098;2024-02-28T10:34:30;6.70;99.90
66422;DHT22;53228;51.380;0.098;2024-02-28T10:36:59;6.90;99.90
66422;DHT22;53228;51.380;0.098;2024-02-28T10:39:28;6.90;99.90
66422;DHT22;53228;51.380;0.098;2024-02-28T10:41:59;6.90;99.90
66422;DHT22;53228;51.380;0.098;2024-02-28T10:44:28;7.10;99.90
66422;DHT22;53228;51.380;0.098;2024-02-28T10:46:59;7.10;99.90
66422;DHT22;53228;51.380;0.098;2024-02-28T10:49:27;7.10;99.90
66422;DHT22;53228;51.380;0.098;2024-02-28T10:51:59;7.20;99.90
66422;DHT22;53228;51.380;0.098;2024-02-28T10:54:29;7.20;99.90
66422;DHT22;53228;51.380;0.098;2024-02-28T10:56:57;7.40;99.90
66422;DHT22;53228;51.380;0.098;2024-02-28T10:59:28;7.40;99.90
66422;DHT22;53228;51.380;0.098;2024-02-28T11:01:57;7.50;99.90
66422;DHT22;53228;51.380;0.098;2024-02-28T11:06:55;7.40;99.90
66422;DHT22;53228;51.380;0.098;2024-02-28T11:09:25;7.40;99.90
66422;DHT22;53228;51.380;0.098;2024-02-28T11:11:54;7.40;99.90
66422;DHT22;53228;51.380;0.098;2024-02-28T11:14:23;7.40;99.90
66422;DHT22;53228;51.380;0.098;2024-02-28T11:17:03;7.50;99.90
66422;DHT22;53228;51.380;0.098;2024-02-28T11:19:31;7.40;99.90
66422;DHT22;53228;51.380;0.098;2024-02-28T11:22:00;7.30;99.90
66422;DHT22;53228;51.380;0.098;2024-02-28T11:24:33;7.40;99.90
66422;DHT22;53228;51.380;0.098;2024-02-28T11:27:02;7.30;99.90
66422;DHT22;53228;51.380;0.098;2024-02-28T11:29:31;7.30;99.90
66422;DHT22;53228;51.380;0.098;2024-02-28T11:32:00;7.40;99.90
66422;DHT22;53228;51.380;0.098;2024-02-28T11:34:28;7.20;99.90
66422;DHT22;53228;51.380;0.098;2024-02-28T11:36:56;7.30;99.90
66422;DHT22;53228;51.380;0.098;2024-02-28T11:39:26;7.20;99.90
66422;DHT22;53228;51.380;0.098;2024-02-28T11:41:54;7.20;99.90
66422;DHT22;53228;51.380;0.098;2024-02-28T11:44:23;7.40;99.90
66422;DHT22;53228;51.380;0.098;2024-02-28T11:46:50;7.20;99.90
66422;DHT22;53228;51.380;0.098;2024-02-28T11:49:18;7.30;99.90
66422;DHT22;53228;51.380;0.098;2024-02-28T11:51:46;7.30;99.90
66422;DHT22;53228;51.380;0.098;2024-02-28T11:54:18;7.20;99.90
66422;DHT22;53228;51.380;0.098;2024-02-28T11:56:45;7.30;99.90
66422;DHT22;53228;51.380;0.098;2024-02-28T12:01:42;7.50;99.90
66422;DHT22;53228;51.380;0.098;2024-02-28T12:04:13;7.60;99.90
66422;DHT22;53228;51.380;0.098;2024-02-28T12:06:41;7.70;99.90
66422;DHT22;53228;51.380;0.098;2024-02-28T12:09:12;7.70;99.90
66422;DHT22;53228;51.380;0.098;2024-02-28T12:11:51;7.90;99.90
66422;DHT22;53228;51.380;0.098;2024-02-28T12:14:19;8.00;99.90
66422;DHT22;53228;51.380;0.098;2024-02-28T12:16:48;8.10;99.90
66422;DHT22;53228;51.380;0.098;2024-02-28T12:19:17;8.10;99.90
66422;DHT22;53228;51.380;0.098;2024-02-28T12:21:47;8.20;99.90
66422;DHT22;53228;51.380;0.098;2024-02-28T12:24:15;8.30;99.90
66422;DHT22;53228;51.380;0.098;2024-02-28T12:26:43;8.40;99.90
66422;DHT22;53228;51.380;0.098;2024-02-28T12:29:13;8.30;99.90
66422;DHT22;53228;51.380;0.098;2024-02-28T12:31:41;8.40;99.90
66422;DHT22;53228;51.380;0.098;2024-02-28T12:34:09;8.40;99.90
66422;DHT22;53228;51.380;0.098;2024-02-28T12:36:36;8.70;99.90
66422;DHT22;53228;51.380;0.098;2024-02-28T12:41:33;8.30;99.90
66422;DHT22;53228;51.380;0.098;2024-02-28T12:44:07;8.40;99.90
66422;DHT22;53228;51.380;0.098;2024-02-28T12:46:36;8.50;99.90
66422;DHT22;53228;51.380;0.098;2024-02-28T12:49:04;8.40;99.90
66422;DHT22;53228;51.380;0.098;2024-02-28T12:51:40;8.60;99.90
66422;DHT22;53228;51.380;0.098;2024-02-28T12:56:37;8.60;99.90
66422;DHT22;53228;51.380;0.098;2024-02-28T12:59:06;8.60;99.90
66422;DHT22;53228;51.380;0.098;2024-02-28T13:01:35;8.70;99.90
66422;DHT22;53228;51.380;0.098;2024-02-28T13:04:03;8.70;99.90
66422;DHT22;53228;51.380;0.098;2024-02-28T13:06:31;9.00;99.90
66422;DHT22;53228;51.380;0.098;2024-02-28T13:08:59;8.70;99.90
66422;DHT22;53228;51.380;0.098;2024-02-28T13:11:27;8.80;99.90
66422;DHT22;53228;51.380;0.098;2024-02-28T13:13:55;8.80;99.90
66422;DHT22;53228;51.380;0.098;2024-02-28T13:16:23;8.90;99.90
66422;DHT22;53228;51.380;0.098;2024-02-28T13:18:51;8.90;99.90
66422;DHT22;53228;51.380;0.098;2024-02-28T13:21:22;9.00;99.90
66422;DHT22;53228;51.380;0.098;2024-02-28T13:26:18;7.50;99.90
66422;DHT22;53228;51.380;0.098;2024-02-28T13:28:47;9.00;99.90
66422;DHT22;53228;51.380;0.098;2024-02-28T13:33:47;8.50;99.90
66422;DHT22;53228;51.380;0.098;2024-02-28T13:36:16;9.00;99.90
66422;DHT22;53228;51.380;0.098;2024-02-28T13:38:44;9.00;99.90
66422;DHT22;53228;51.380;0.098;2024-02-28T13:41:12;9.10;99.90
66422;DHT22;53228;51.380;0.098;2024-02-28T13:43:40;9.10;99.90
66422;DHT22;53228;51.380;0.098;2024-02-28T13:46:07;9.10;99.90
66422;DHT22;53228;51.380;0.098;2024-02-28T13:48:37;9.10;99.90
66422;DHT22;53228;51.380;0.098;2024-02-28T13:51:05;9.10;99.90
66422;DHT22;53228;51.380;0.098;2024-02-28T13:53:33;9.10;99.90
66422;DHT22;53228;51.380;0.098;2024-02-28T13:56:01;9.10;99.90
66422;DHT22;53228;51.380;0.098;2024-02-28T13:58:28;9.20;99.90
66422;DHT22;53228;51.380;0.098;2024-02-28T14:01:09;9.20;99.90
66422;DHT22;53228;51.380;0.098;2024-02-28T14:03:38;9.20;99.90
66422;DHT22;53228;51.380;0.098;2024-02-28T14:06:09;9.20;99.90
66422;DHT22;53228;51.380;0.098;2024-02-28T14:08:37;9.20;99.90
66422;DHT22;53228;51.380;0.098;2024-02-28T14:11:07;9.30;99.90
66422;DHT22;53228;51.380;0.098;2024-02-28T14:13:35;9.30;99.90
66422;DHT22;53228;51.380;0.098;2024-02-28T14:16:03;9.30;99.90
66422;DHT22;53228;51.380;0.098;2024-02-28T14:18:31;9.30;99.90
66422;DHT22;53228;51.380;0.098;2024-02-28T14:20:59;9.30;99.90
66422;DHT22;53228;51.380;0.098;2024-02-28T14:23:31;9.30;99.90
66422;DHT22;53228;51.380;0.098;2024-02-28T14:25:59;9.40;99.90
66422;DHT22;53228;51.380;0.098;2024-02-28T14:28:27;9.40;99.90
66422;DHT22;53228;51.380;0.098;2024-02-28T14:30:54;9.40;99.90
66422;DHT22;53228;51.380;0.098;2024-02-28T14:33:22;9.40;99.90
66422;DHT22;53228;51.380;0.098;2024-02-28T14:35:50;9.40;99.90
66422;DHT22;53228;51.380;0.098;2024-02-28T14:38:19;9.40;99.90
66422;DHT22;53228;51.380;0.098;2024-02-28T14:40:46;9.40;99.90
66422;DHT22;53228;51.380;0.098;2024-02-28T14:43:14;9.50;99.90
66422;DHT22;53228;51.380;0.098;2024-02-28T14:45:43;9.50;99.90
66422;DHT22;53228;51.380;0.098;2024-02-28T14:48:11;9.50;99.90
66422;DHT22;53228;51.380;0.098;2024-02-28T14:50:38;9.50;99.90
66422;DHT22;53228;51.380;0.098;2024-02-28T14:53:06;9.50;99.90
66422;DHT22;53228;51.380;0.098;2024-02-28T14:55:33;9.50;99.90
66422;DHT22;53228;51.380;0.098;2024-02-28T14:58:01;9.50;99.90
66422;DHT22;53228;51.380;0.098;2024-02-28T15:00:29;9.50;99.90
66422;DHT22;53228;51.380;0.098;2024-02-28T15:02:56;9.50;99.90
66422;DHT22;53228;51.380;0.098;2024-02-28T15:05:24;9.50;99.90
66422;DHT22;53228;51.380;0.098;2024-02-28T15:07:52;9.50;99.90
66422;DHT22;53228;51.380;0.098;2024-02-28T15:10:22;9.50;99.90
66422;DHT22;53228;51.380;0.098;2024-02-28T15:12:49;9.50;99.90
66422;DHT22;53228;51.380;0.098;2024-02-28T15:15:17;9.50;99.90
66422;DHT22;53228;51.380;0.098;2024-02-28T15:17:45;9.50;99.90
66422;DHT22;53228;51.380;0.098;2024-02-28T15:20:13;9.50;99.90
66422;DHT22;53228;51.380;0.098;2024-02-28T15:22:40;9.50;99.90
66422;DHT22;53228;51.380;0.098;2024-02-28T15:25:09;9.50;99.90
66422;DHT22;53228;51.380;0.098;2024-02-28T15:27:38;9.50;99.90
66422;DHT22;53228;51.380;0.098;2024-02-28T15:30:07;9.50;99.90
66422;DHT22;53228;51.380;0.098;2024-02-28T15:32:34;9.50;99.90
66422;DHT22;53228;51.380;0.098;2024-02-28T15:35:08;9.50;99.90
66422;DHT22;53228;51.380;0.098;2024-02-28T15:37:35;9.50;99.90
66422;DHT22;53228;51.380;0.098;2024-02-28T15:40:03;9.50;99.90
66422;DHT22;53228;51.380;0.098;2024-02-28T15:42:34;9.50;99.90
66422;DHT22;53228;51.380;0.098;2024-02-28T15:45:02;9.50;99.90
66422;DHT22;53228;51.380;0.098;2024-02-28T15:47:32;9.50;99.90
66422;DHT22;53228;51.380;0.098;2024-02-28T15:50:02;9.50;99.90
66422;DHT22;53228;51.380;0.098;2024-02-28T15:52:32;9.40;99.90
66422;DHT22;53228;51.380;0.098;2024-02-28T15:55:00;9.40;99.90
66422;DHT22;53228;51.380;0.098;2024-02-28T15:57:28;9.00;99.90
66422;DHT22;53228;51.380;0.098;2024-02-28T15:59:55;9.30;99.90
66422;DHT22;53228;51.380;0.098;2024-02-28T16:02:23;9.40;99.90
66422;DHT22;53228;51.380;0.098;2024-02-28T16:04:52;9.30;99.90
66422;DHT22;53228;51.380;0.098;2024-02-28T16:07:19;9.30;99.90
66422;DHT22;53228;51.380;0.098;2024-02-28T16:09:49;9.20;99.90
66422;DHT22;53228;51.380;0.098;2024-02-28T16:12:16;9.20;99.90
66422;DHT22;53228;51.380;0.098;2024-02-28T16:14:44;9.20;99.90
66422;DHT22;53228;51.380;0.098;2024-02-28T16:17:11;9.20;99.90
66422;DHT22;53228;51.380;0.098;2024-02-28T16:19:43;9.20;99.90
66422;DHT22;53228;51.380;0.098;2024-02-28T16:22:11;9.10;99.90
66422;DHT22;53228;51.380;0.098;2024-02-28T16:24:39;9.10;99.90
66422;DHT22;53228;51.380;0.098;2024-02-28T16:27:07;9.10;99.90
66422;DHT22;53228;51.380;0.098;2024-02-28T16:29:34;9.10;99.90
66422;DHT22;53228;51.380;0.098;2024-02-28T16:32:02;9.10;99.90
66422;DHT22;53228;51.380;0.098;2024-02-28T16:34:30;9.10;99.90
66422;DHT22;53228;51.380;0.098;2024-02-28T16:36:58;9.10;99.90
66422;DHT22;53228;51.380;0.098;2024-02-28T16:39:28;9.00;99.90
66422;DHT22;53228;51.380;0.098;2024-02-28T16:41:57;9.00;99.90
66422;DHT22;53228;51.380;0.098;2024-02-28T16:44:25;9.00;99.90
66422;DHT22;53228;51.380;0.098;2024-02-28T16:46:52;9.00;99.90
66422;DHT22;53228;51.380;0.098;2024-02-28T16:49:20;9.10;99.90
66422;DHT22;53228;51.380;0.098;2024-02-28T16:51:48;9.10;99.90
66422;DHT22;53228;51.380;0.098;2024-02-28T16:54:17;9.10;99.90
66422;DHT22;53228;51.380;0.098;2024-02-28T16:56:47;9.10;99.90
66422;DHT22;53228;51.380;0.098;2024-02-28T16:59:15;9.10;99.90
66422;DHT22;53228;51.380;0.098;2024-02-28T17:01:43;9.00;99.90
66422;DHT22;53228;51.380;0.098;2024-02-28T17:04:14;9.00;99.90
66422;DHT22;53228;51.380;0.098;2024-02-28T17:06:42;9.00;99.90
66422;DHT22;53228;51.380;0.098;2024-02-28T17:09:10;9.00;99.90
66422;DHT22;53228;51.380;0.098;2024-02-28T17:11:38;9.00;99.90
66422;DHT22;53228;51.380;0.098;2024-02-28T17:14:06;9.00;99.90
66422;DHT22;53228;51.380;0.098;2024-02-28T17:16:34;9.00;99.90
66422;DHT22;53228;51.380;0.098;2024-02-28T17:19:02;9.00;99.90
66422;DHT22;53228;51.380;0.098;2024-02-28T17:21:30;9.00;99.90
66422;DHT22;53228;51.380;0.098;2024-02-28T17:23:58;9.00;99.90
66422;DHT22;53228;51.380;0.098;2024-02-28T17:26:26;9.00;99.90
66422;DHT22;53228;51.380;0.098;2024-02-28T17:28:55;9.10;99.90
66422;DHT22;53228;51.380;0.098;2024-02-28T17:31:23;9.00;99.90
66422;DHT22;53228;51.380;0.098;2024-02-28T17:33:51;9.10;99.90
66422;DHT22;53228;51.380;0.098;2024-02-28T17:36:18;9.10;99.90
66422;DHT22;53228;51.380;0.098;2024-02-28T17:38:46;9.00;99.90